Time;durP1;ratioP1;P1;durP2;ratioP2;P2;SDS_P1;SDS_P2;PMS_P1;PMS_P2;Temp;Humidity;BMP_temperature;BMP_pressure;BME280_temperature;BME280_humidity;BME280_pressure;Samples;Min_cycle;Max_cycle;Signal;HPM_P1;HPM_P2
2021/06/23 00:02:18;;;;;;;12.27;5.03;;;;;;;15.40;80.37;100998.66;5070245;28;20056;-85
2021/06/23 00:04:45;;;;;;;8.15;4.32;;;;;;;15.24;81.04;100995.41;5080181;28;20049;-83
2021/06/23 00:07:12;;;;;;;10.52;4.43;;;;;;;15.13;81.43;100992.69;5091865;28;20040;-84
2021/06/23 00:09:40;;;;;;;10.60;4.63;;;;;;;15.13;82.30;100982.94;5090024;28;20084;-84
2021/06/23 00:12:14;;;;;;;9.57;5.05;;;;;;;15.19;81.78;100990.44;5067965;28;20048;-84
2021/06/23 00:14:42;;;;;;;9.60;4.80;;;;;;;15.32;81.41;100986.91;5084373;28;20332;-83
2021/06/23 00:17:10;;;;;;;9.23;4.72;;;;;;;15.43;80.66;100987.81;5050923;28;20476;-85
2021/06/23 00:19:37;;;;;;;8.27;4.60;;;;;;;15.35;80.77;100990.16;5041125;28;20106;-84
2021/06/23 00:22:04;;;;;;;10.85;5.20;;;;;;;15.24;81.24;100983.97;5076545;28;20046;-85
2021/06/23 00:24:32;;;;;;;11.73;4.90;;;;;;;15.03;82.23;100973.94;5059170;28;20060;-85
2021/06/23 00:26:59;;;;;;;8.48;5.07;;;;;;;15.06;83.22;100983.50;5063847;28;20286;-84
2021/06/23 00:29:27;;;;;;;12.68;4.50;;;;;;;15.28;81.59;100985.44;5082441;28;20080;-82
2021/06/23 00:31:55;;;;;;;11.43;6.00;;;;;;;15.37;80.91;100988.25;5061099;28;20060;-84
2021/06/23 00:34:23;;;;;;;10.70;5.65;;;;;;;15.11;81.76;100984.84;5064659;28;20086;-82
2021/06/23 00:36:50;;;;;;;10.30;5.35;;;;;;;14.90;83.00;100983.72;5064304;28;20143;-83
2021/06/23 00:39:17;;;;;;;8.88;5.50;;;;;;;14.77;83.39;100977.59;5067862;28;20086;-84
2021/06/23 00:41:45;;;;;;;11.90;5.40;;;;;;;14.67;83.68;100980.91;5029583;28;20063;-83
2021/06/23 00:44:13;;;;;;;7.43;4.90;;;;;;;14.67;84.57;100975.59;5054704;28;20489;-83
2021/06/23 00:46:41;;;;;;;11.43;6.22;;;;;;;14.97;82.93;100989.47;5071202;28;20109;-83
2021/06/23 00:49:09;;;;;;;9.48;6.18;;;;;;;15.33;81.10;100996.56;5061226;28;20048;-84
2021/06/23 00:51:36;;;;;;;9.45;5.80;;;;;;;15.25;81.16;100993.63;5055944;28;20147;-82
2021/06/23 00:54:09;;;;;;;11.07;6.88;;;;;;;14.97;82.44;101014.16;5060800;28;20354;-84
2021/06/23 00:56:37;;;;;;;12.60;6.60;;;;;;;14.79;82.97;101007.50;5075084;28;20028;-81
2021/06/23 00:59:06;;;;;;;12.93;7.35;;;;;;;14.64;83.74;101012.94;5107859;28;20050;-81
2021/06/23 01:01:35;;;;;;;12.40;6.57;;;;;;;14.65;83.75;101011.13;5099421;28;20052;-80
2021/06/23 01:04:03;;;;;;;15.70;7.80;;;;;;;14.73;84.42;101014.09;5096618;28;20056;-82
2021/06/23 01:06:31;;;;;;;15.43;6.07;;;;;;;14.83;83.57;101009.84;5071762;28;20113;-82
2021/06/23 01:08:58;;;;;;;11.35;5.85;;;;;;;14.73;83.85;101007.97;5066528;28;20040;-81
2021/06/23 01:11:27;;;;;;;16.00;6.25;;;;;;;14.72;84.20;100995.63;5081731;28;20060;-83
2021/06/23 01:14:03;;;;;;;16.65;6.97;;;;;;;14.78;84.19;100992.56;5076183;28;20104;-81
2021/06/23 01:16:31;;;;;;;;;;;;;;;15.00;83.46;101000.69;5094045;28;20056;-84
2021/06/23 01:18:59;;;;;;;15.70;6.70;;;;;;;15.19;82.04;101006.38;5083889;28;19967;-84
2021/06/23 01:21:27;;;;;;;10.30;6.22;;;;;;;15.41;80.87;101003.00;5047727;28;20040;-84
2021/06/23 01:23:55;;;;;;;11.27;5.75;;;;;;;15.18;81.56;101004.69;5073864;28;20044;-84
2021/06/23 01:26:22;;;;;;;12.40;6.28;;;;;;;14.90;83.16;101005.81;5076382;28;20120;-84
2021/06/23 01:28:49;;;;;;;13.75;7.05;;;;;;;14.71;84.17;101004.56;5066704;28;20108;-84
2021/06/23 01:31:18;;;;;;;11.57;6.15;;;;;;;14.70;84.08;101014.31;5083061;28;20050;-85
2021/06/23 01:33:46;;;;;;;10.13;6.20;;;;;;;14.56;84.72;101022.38;5082786;28;20499;-84
2021/06/23 01:36:13;;;;;;;9.45;5.22;;;;;;;14.75;84.38;101048.44;5054214;28;20096;-84
2021/06/23 01:38:41;;;;;;;11.48;6.20;;;;;;;14.89;83.70;101057.13;5076606;28;20595;-83
2021/06/23 01:41:08;;;;;;;10.23;5.30;;;;;;;14.79;84.19;101041.97;5056271;28;20300;-85
2021/06/23 01:43:35;;;;;;;10.85;5.55;;;;;;;14.59;84.80;101030.09;5070985;28;20575;-84
2021/06/23 01:46:03;;;;;;;9.38;5.13;;;;;;;14.54;85.81;101024.25;5079198;28;20051;-84
2021/06/23 01:48:30;;;;;;;12.57;6.50;;;;;;;14.54;85.26;101027.75;5059153;28;20549;-85
2021/06/23 01:51:02;;;;;;;12.43;5.78;;;;;;;14.46;85.66;101024.78;5073597;28;20492;-83
2021/06/23 01:53:34;;;;;;;9.35;5.22;;;;;;;14.58;86.13;101029.25;5057671;28;20135;-85
2021/06/23 01:56:03;;;;;;;9.23;6.05;;;;;;;14.81;85.02;101032.94;5071620;28;20071;-84
2021/06/23 01:58:30;;;;;;;12.18;6.13;;;;;;;14.86;85.03;101029.97;5059564;28;20069;-84
2021/06/23 02:01:09;;;;;;;12.18;5.57;;;;;;;14.97;84.10;101035.38;5073771;28;20473;-84
2021/06/23 02:04:05;;;;;;;9.85;6.00;;;;;;;15.06;83.54;101036.53;5042524;28;20082;-85
2021/06/23 02:06:55;;;;;;;9.80;6.35;;;;;;;14.82;84.48;101055.03;5065741;28;20052;-84
2021/06/23 02:09:43;;;;;;;15.52;6.82;;;;;;;14.59;85.63;101062.75;5045526;28;20048;-83
2021/06/23 02:13:05;;;;;;;13.45;6.50;;;;;;;14.40;86.34;101064.91;5047763;28;20041;-84
2021/06/23 02:15:34;;;;;;;11.80;5.82;;;;;;;14.46;86.25;101066.31;5015328;28;20136;-83
2021/06/23 02:18:03;;;;;;;9.68;6.13;;;;;;;14.50;86.32;101067.81;5050052;28;20513;-83
2021/06/23 02:20:31;;;;;;;12.43;5.30;;;;;;;14.75;85.29;101070.47;5080017;28;20104;-83
2021/06/23 02:23:05;;;;;;;12.18;5.93;;;;;;;14.85;84.89;101076.00;5063307;28;20108;-84
2021/06/23 02:25:33;;;;;;;11.95;5.90;;;;;;;14.97;84.29;101087.56;5050373;28;20206;-83
2021/06/23 02:28:00;;;;;;;11.55;6.07;;;;;;;14.93;84.51;101087.75;5053034;28;20051;-84
2021/06/23 02:30:28;;;;;;;8.85;5.90;;;;;;;15.02;83.78;101080.97;5040998;28;20315;-83
2021/06/23 02:32:56;;;;;;;9.40;6.20;;;;;;;15.39;81.95;101073.88;5066920;28;20053;-83
2021/06/23 02:35:25;;;;;;;10.85;5.93;;;;;;;15.31;82.56;101064.78;5047780;28;20541;-83
2021/06/23 02:37:53;;;;;;;15.88;6.93;;;;;;;15.19;83.17;101059.41;5022975;28;20124;-83
2021/06/23 02:40:21;;;;;;;10.18;6.28;;;;;;;15.15;83.56;101062.38;5053279;28;20106;-83
2021/06/23 02:42:48;;;;;;;8.88;5.88;;;;;;;15.04;84.29;101068.47;5049392;28;20412;-84
2021/06/23 02:45:16;;;;;;;12.05;6.40;;;;;;;15.09;84.25;101062.84;5046528;28;20074;-84
2021/06/23 02:47:43;;;;;;;8.77;5.43;;;;;;;15.14;83.88;101056.25;5018264;28;20059;-83
2021/06/23 02:50:11;;;;;;;16.63;5.97;;;;;;;15.08;84.18;101059.31;5059907;28;20040;-81
2021/06/23 02:52:40;;;;;;;12.88;6.28;;;;;;;15.01;84.56;101068.66;5041717;28;20067;-81
2021/06/23 02:55:07;;;;;;;15.23;6.10;;;;;;;15.03;84.55;101068.56;5072622;28;20028;-81
2021/06/23 02:57:36;;;;;;;10.88;6.47;;;;;;;14.95;84.88;101069.13;5093758;28;20046;-83
2021/06/23 03:00:05;;;;;;;9.48;5.97;;;;;;;14.97;85.18;101083.09;5101468;28;20052;-82
2021/06/23 03:02:32;;;;;;;10.52;6.55;;;;;;;15.06;84.53;101077.16;5104099;28;20044;-84
2021/06/23 03:04:59;;;;;;;11.70;6.47;;;;;;;15.08;84.65;101087.63;5091335;28;20139;-83
2021/06/23 03:07:27;;;;;;;14.57;5.80;;;;;;;15.07;84.84;101076.19;5072733;28;20040;-85
2021/06/23 03:10:07;;;;;;;15.10;6.40;;;;;;;15.13;84.31;101081.06;5076578;28;20047;-86
2021/06/23 03:12:34;;;;;;;12.07;6.85;;;;;;;15.27;83.81;101076.59;5085133;28;20083;-83
2021/06/23 03:15:03;;;;;;;13.68;6.53;;;;;;;15.26;83.28;101075.72;5086673;28;20155;-85
2021/06/23 03:17:31;;;;;;;14.30;5.90;;;;;;;15.31;82.96;101072.72;5092474;28;20140;-86
2021/06/23 03:20:04;;;;;;;10.93;5.65;;;;;;;15.52;82.35;101079.16;5043531;28;20043;-84
2021/06/23 03:22:31;;;;;;;9.25;5.43;;;;;;;15.66;81.70;101081.69;5077338;28;20409;-85
2021/06/23 03:24:58;;;;;;;9.68;5.63;;;;;;;15.79;80.27;101083.44;5069925;28;20056;-83
2021/06/23 03:27:25;;;;;;;9.80;5.38;;;;;;;16.09;78.10;101097.13;5076282;28;20121;-83
2021/06/23 03:29:52;;;;;;;15.93;5.50;;;;;;;15.99;78.50;101100.59;5092254;28;20124;-82
2021/06/23 03:32:19;;;;;;;9.50;5.57;;;;;;;16.04;77.25;101107.25;5098955;28;20050;-83
2021/06/23 03:34:47;;;;;;;11.10;5.20;;;;;;;16.04;76.58;101104.59;5089524;28;20048;-85
2021/06/23 03:37:15;;;;;;;16.92;4.85;;;;;;;16.07;75.58;101106.16;5063492;28;20051;-85
2021/06/23 03:39:42;;;;;;;10.15;5.10;;;;;;;15.92;75.56;101106.31;5086486;28;20064;-84
2021/06/23 03:42:10;;;;;;;10.05;5.43;;;;;;;16.05;75.05;101111.59;5062749;28;20036;-83
2021/06/23 03:44:37;;;;;;;10.80;4.95;;;;;;;16.10;75.41;101104.13;5058610;28;20266;-84
2021/06/23 03:47:10;;;;;;;11.80;5.88;;;;;;;16.01;75.65;101117.22;5061274;28;20222;-83
2021/06/23 03:49:38;;;;;;;13.15;5.00;;;;;;;16.11;75.67;101118.25;5077347;28;20407;-83
2021/06/23 03:52:05;;;;;;;15.30;5.68;;;;;;;15.93;76.05;101120.44;5043490;28;20525;-83
2021/06/23 03:54:32;;;;;;;10.88;5.28;;;;;;;15.83;76.58;101114.97;5031889;28;20114;-83
2021/06/23 03:57:00;;;;;;;11.07;5.28;;;;;;;15.94;76.67;101127.47;5068331;28;20135;-83
2021/06/23 03:59:27;;;;;;;11.57;5.28;;;;;;;15.91;76.02;101125.03;5055517;28;20072;-83
2021/06/23 04:01:54;;;;;;;13.63;5.88;;;;;;;15.80;76.46;101117.84;5058222;28;20062;-84
2021/06/23 04:04:21;;;;;;;11.98;5.55;;;;;;;15.75;76.46;101113.81;5074300;28;20044;-83
2021/06/23 04:06:48;;;;;;;12.48;5.55;;;;;;;15.78;75.70;101113.63;5062933;28;20048;-81
2021/06/23 04:09:16;;;;;;;12.82;6.18;;;;;;;15.74;76.51;101112.97;5048395;28;20511;-83
2021/06/23 04:11:43;;;;;;;7.30;5.30;;;;;;;15.96;75.61;101109.59;5061492;28;20139;-84
2021/06/23 04:14:10;;;;;;;17.55;5.55;;;;;;;16.05;74.36;101111.59;5076255;28;20467;-84
2021/06/23 04:16:37;;;;;;;10.25;5.07;;;;;;;16.17;73.78;101110.69;5059222;28;20051;-82
2021/06/23 04:19:04;;;;;;;11.23;5.47;;;;;;;16.25;73.85;101102.13;5070986;28;20144;-84
2021/06/23 04:21:32;;;;;;;10.38;4.75;;;;;;;16.56;72.31;101113.94;5072104;28;20079;-82
2021/06/23 04:23:59;;;;;;;12.40;4.60;;;;;;;16.76;71.31;101114.25;5037115;28;20143;-82
2021/06/23 04:26:26;;;;;;;7.75;5.50;;;;;;;17.20;69.30;101124.06;5034112;28;20041;-83
2021/06/23 04:28:53;;;;;;;10.18;4.85;;;;;;;17.95;66.42;101132.22;5078764;28;20094;-84
2021/06/23 04:31:21;;;;;;;7.72;4.30;;;;;;;18.72;63.19;101133.84;5054573;28;20363;-82
2021/06/23 04:33:48;;;;;;;20.17;4.50;;;;;;;19.41;59.92;101138.59;5043912;28;20072;-82
2021/06/23 04:36:15;;;;;;;7.13;4.05;;;;;;;20.10;57.68;101140.44;5075333;28;20042;-84
2021/06/23 04:38:42;;;;;;;7.97;4.38;;;;;;;21.21;54.62;101146.09;5076763;28;20093;-84
2021/06/23 04:41:10;;;;;;;8.55;3.72;;;;;;;21.53;52.48;101147.53;5073378;28;20143;-82
2021/06/23 04:43:37;;;;;;;10.35;3.65;;;;;;;21.15;53.96;101143.16;5046517;28;20440;-81
2021/06/23 04:46:04;;;;;;;8.70;3.80;;;;;;;21.65;52.34;101143.66;5068004;28;20222;-79
2021/06/23 04:48:33;;;;;;;8.20;3.95;;;;;;;23.81;47.31;101143.09;5052725;28;20143;-87
2021/06/23 04:51:00;;;;;;;9.60;4.03;;;;;;;24.66;44.69;101143.72;5060086;28;20052;-85
2021/06/23 04:53:28;;;;;;;12.18;4.10;;;;;;;26.05;42.08;101154.06;5046940;28;20501;-84
2021/06/23 04:55:57;;;;;;;9.10;3.70;;;;;;;25.79;41.45;101157.06;5048374;28;20055;-86
2021/06/23 04:58:25;;;;;;;11.27;3.70;;;;;;;25.09;42.64;101165.09;5060119;28;20045;-87
2021/06/23 05:00:52;;;;;;;8.35;3.72;;;;;;;26.39;40.61;101158.22;5061096;28;20040;-78
2021/06/23 05:03:19;;;;;;;5.97;3.00;;;;;;;27.34;38.34;101154.97;5044137;28;20079;-78
2021/06/23 05:05:46;;;;;;;14.88;4.10;;;;;;;27.21;38.01;101164.56;5050006;28;20068;-78
2021/06/23 05:08:13;;;;;;;10.82;4.30;;;;;;;27.18;37.81;101164.94;5069961;28;20389;-79
2021/06/23 05:10:42;;;;;;;10.95;3.80;;;;;;;26.67;39.92;101155.81;5068383;28;20346;-77
2021/06/23 05:13:09;;;;;;;11.68;4.30;;;;;;;27.45;37.79;101158.03;5030481;28;20061;-78
2021/06/23 05:15:36;;;;;;;6.80;3.35;;;;;;;27.68;37.54;101163.31;5069312;28;20170;-78
2021/06/23 05:18:04;;;;;;;8.05;2.97;;;;;;;25.04;42.13;101173.66;5068908;28;20047;-78
2021/06/23 05:20:31;;;;;;;13.55;3.60;;;;;;;24.22;44.20;101168.22;5058858;28;20459;-81
2021/06/23 05:22:58;;;;;;;9.48;4.95;;;;;;;21.13;52.57;101170.06;5042073;28;20485;-79
2021/06/23 05:25:26;;;;;;;10.68;3.78;;;;;;;21.78;51.50;101174.59;5067911;28;20204;-78
2021/06/23 05:27:53;;;;;;;10.93;3.70;;;;;;;21.57;52.17;101169.50;5053766;28;20126;-79
2021/06/23 05:30:20;;;;;;;8.23;3.70;;;;;;;21.84;50.84;101171.31;5044899;28;20206;-78
2021/06/23 05:32:48;;;;;;;6.68;3.85;;;;;;;22.37;49.82;101165.19;5057903;28;20168;-79
2021/06/23 05:35:18;;;;;;;9.90;3.83;;;;;;;22.54;49.57;101168.88;5070211;28;20058;-79
2021/06/23 05:37:46;;;;;;;10.65;3.22;;;;;;;22.77;49.17;101175.44;5037824;28;20140;-79
2021/06/23 05:40:13;;;;;;;8.77;3.15;;;;;;;23.03;48.17;101172.78;5065780;28;20441;-79
2021/06/23 05:42:41;;;;;;;8.60;3.53;;;;;;;23.03;48.11;101172.78;5068085;28;20231;-79
2021/06/23 05:45:08;;;;;;;13.60;3.80;;;;;;;22.02;50.40;101188.31;5049918;28;20057;-79
2021/06/23 05:47:37;;;;;;;7.53;4.05;;;;;;;22.88;48.40;101179.72;5075727;28;20040;-78
2021/06/23 05:50:05;;;;;;;9.48;3.67;;;;;;;22.85;48.68;101175.50;5053280;28;20106;-79
2021/06/23 05:52:32;;;;;;;12.43;3.85;;;;;;;22.54;48.79;101185.81;5050740;28;20043;-80
2021/06/23 05:54:59;;;;;;;15.45;4.55;;;;;;;22.62;48.90;101188.56;5057405;28;20040;-78
2021/06/23 05:57:26;;;;;;;10.93;4.60;;;;;;;22.43;49.94;101194.13;5057751;28;20044;-78
2021/06/23 05:59:54;;;;;;;17.75;4.93;;;;;;;22.94;48.15;101195.22;5061562;28;20101;-78
2021/06/23 06:02:21;;;;;;;7.28;3.72;;;;;;;23.05;47.25;101199.47;5067444;28;20067;-78
2021/06/23 06:04:48;;;;;;;8.77;4.35;;;;;;;23.18;47.61;101206.13;5072773;28;20117;-77
2021/06/23 06:07:15;;;;;;;11.60;4.35;;;;;;;22.83;48.59;101198.97;5066018;28;20086;-80
2021/06/23 06:09:42;;;;;;;15.65;4.35;;;;;;;22.66;49.24;101203.38;5066672;28;20530;-79
2021/06/23 06:12:10;;;;;;;16.65;5.40;;;;;;;21.82;52.04;101208.16;5044395;28;20125;-78
2021/06/23 06:14:37;;;;;;;13.30;5.20;;;;;;;21.15;53.22;101207.41;5023599;28;20047;-78
2021/06/23 06:17:05;;;;;;;18.58;4.50;;;;;;;20.83;54.27;101213.09;5062730;28;20114;-77
2021/06/23 06:19:32;;;;;;;15.05;4.10;;;;;;;21.30;53.12;101205.09;5052262;28;20139;-77
2021/06/23 06:21:59;;;;;;;10.85;4.15;;;;;;;21.13;53.84;101204.88;5040927;28;20524;-77
2021/06/23 06:24:26;;;;;;;15.05;4.05;;;;;;;20.28;56.02;101199.41;5069959;28;20139;-78
2021/06/23 06:26:54;;;;;;;11.40;4.70;;;;;;;20.42;55.77;101205.19;5048425;28;20103;-77
2021/06/23 06:29:21;;;;;;;12.80;5.07;;;;;;;21.31;53.92;101206.81;5076403;28;20152;-78
2021/06/23 06:31:48;;;;;;;16.35;4.50;;;;;;;20.87;54.78;101209.16;5041677;28;20590;-79
2021/06/23 06:34:15;;;;;;;16.45;4.70;;;;;;;21.82;52.63;101213.53;5079244;28;20144;-78
2021/06/23 06:36:44;;;;;;;10.18;3.83;;;;;;;21.16;53.71;101225.16;5065156;28;20064;-78
2021/06/23 06:39:11;;;;;;;12.48;3.67;;;;;;;21.77;52.83;101231.91;5072003;28;20070;-79
2021/06/23 06:41:38;;;;;;;13.20;3.63;;;;;;;21.58;52.49;101235.50;5054829;28;20386;-79
2021/06/23 06:44:06;;;;;;;14.95;3.83;;;;;;;20.94;54.23;101232.53;5081405;28;20132;-78
2021/06/23 06:46:33;;;;;;;15.68;3.90;;;;;;;21.36;53.22;101236.69;5084334;28;20147;-78
2021/06/23 06:49:00;;;;;;;15.05;4.35;;;;;;;22.28;50.37;101236.69;5046730;28;20467;-79
2021/06/23 06:51:30;;;;;;;12.60;3.58;;;;;;;23.30;48.19;101238.94;5070602;28;20599;-79
2021/06/23 06:53:57;;;;;;;13.82;3.85;;;;;;;23.05;47.79;101231.72;5074349;28;20056;-79
2021/06/23 06:56:24;;;;;;;11.98;3.70;;;;;;;23.46;47.51;101238.19;5074476;28;20060;-79
2021/06/23 06:58:52;;;;;;;14.32;3.67;;;;;;;23.86;45.42;101240.25;5073041;28;20536;-79
2021/06/23 07:01:19;;;;;;;14.82;3.60;;;;;;;24.70;43.54;101238.47;5070666;28;20355;-77
2021/06/23 07:03:46;;;;;;;11.40;3.58;;;;;;;25.47;41.85;101241.59;5075388;28;20143;-78
2021/06/23 07:06:14;;;;;;;15.25;3.35;;;;;;;26.89;39.00;101233.28;5060269;28;20525;-78
2021/06/23 07:08:41;;;;;;;15.98;3.97;;;;;;;26.71;39.17;101235.44;5073094;28;20048;-77
2021/06/23 07:11:18;;;;;;;8.55;3.28;;;;;;;26.93;39.30;101237.28;5068832;28;20048;-80
2021/06/23 07:13:45;;;;;;;18.15;3.83;;;;;;;28.44;35.47;101242.31;5074585;28;20057;-78
2021/06/23 07:16:12;;;;;;;14.00;4.22;;;;;;;28.01;35.52;101238.69;5061161;28;20036;-79
2021/06/23 07:18:40;;;;;;;15.50;3.25;;;;;;;28.96;34.63;101226.78;5056327;28;20044;-79
2021/06/23 07:21:07;;;;;;;8.45;3.30;;;;;;;27.86;36.00;101225.16;5058433;28;20161;-78
2021/06/23 07:23:34;;;;;;;12.10;4.10;;;;;;;27.77;36.29;101235.25;5061363;28;20093;-79
2021/06/23 07:26:01;;;;;;;12.50;3.97;;;;;;;25.15;41.64;101240.66;5073850;28;20154;-78
2021/06/23 07:28:39;;;;;;;13.98;3.67;;;;;;;29.55;33.84;101229.06;5075073;28;20128;-79
2021/06/23 07:31:08;;;;;;;15.70;3.60;;;;;;;29.48;33.44;101222.72;5054304;28;20103;-79
2021/06/23 07:33:37;;;;;;;13.52;3.60;;;;;;;30.68;31.90;101215.84;5080856;28;20132;-80
2021/06/23 07:38:53;;;;;;;12.43;3.78;;;;;;;31.60;30.12;101227.69;5078734;28;20090;-79
2021/06/23 07:41:20;;;;;;;11.55;3.92;;;;;;;29.46;32.70;101232.94;5075606;28;20040;-78
2021/06/23 07:43:47;;;;;;;8.48;3.45;;;;;;;28.34;34.78;101232.78;5053584;28;20075;-78
2021/06/23 07:46:16;;;;;;;9.60;3.03;;;;;;;28.71;34.35;101229.00;5044233;28;20139;-79
2021/06/23 07:48:56;;;;;;;13.20;4.00;;;;;;;27.27;37.05;101234.09;5068487;28;20201;-79
2021/06/23 07:51:35;;;;;;;13.82;3.35;;;;;;;27.58;36.33;101232.25;5072428;28;20054;-79
2021/06/23 07:54:11;;;;;;;9.30;3.30;;;;;;;27.44;36.49;101231.22;5044906;28;20156;-79
2021/06/23 08:00:57;;;;;;;10.20;3.22;;;;;;;26.14;39.30;101244.72;5069266;28;20048;-79
2021/06/23 08:10:31;;;;;;;9.45;3.28;;;;;;;27.20;36.81;101225.06;5083761;28;20140;-87
2021/06/23 08:12:59;;;;;;;15.05;3.53;;;;;;;27.40;36.74;101227.22;5061494;28;20211;-81
2021/06/23 08:15:29;;;;;;;9.30;3.30;;;;;;;26.96;37.37;101226.09;5059454;28;20052;-82
2021/06/23 08:17:56;;;;;;;12.35;3.47;;;;;;;26.93;37.18;101228.34;5058688;28;20037;-80
2021/06/23 08:20:24;;;;;;;13.38;3.13;;;;;;;26.46;38.53;101232.09;5045320;28;20158;-83
2021/06/23 08:22:52;;;;;;;15.35;3.65;;;;;;;26.23;38.73;101243.66;5058136;28;20077;-81
2021/06/23 08:25:21;;;;;;;12.73;3.70;;;;;;;26.11;38.91;101245.06;5059927;28;20386;-81
2021/06/23 08:27:50;;;;;;;18.92;4.00;;;;;;;26.68;37.46;101227.69;5047007;28;20064;-80
2021/06/23 08:30:18;;;;;;;7.28;2.80;;;;;;;26.82;36.75;101231.47;5040816;28;20037;-82
2021/06/23 08:32:46;;;;;;;8.77;2.90;;;;;;;26.65;36.93;101236.16;5052596;28;20071;-82
2021/06/23 08:35:14;;;;;;;15.80;3.20;;;;;;;26.10;35.72;101242.56;5042751;28;20534;-80
2021/06/23 08:37:42;;;;;;;12.35;2.80;;;;;;;25.03;37.79;101250.06;5059969;28;20119;-82
2021/06/23 08:40:11;;;;;;;8.27;2.60;;;;;;;23.60;39.00;101245.69;5031004;28;20468;-82
2021/06/23 08:42:40;;;;;;;11.25;3.00;;;;;;;24.07;39.73;101247.91;5033225;28;20105;-82
2021/06/23 08:45:08;;;;;;;8.20;2.60;;;;;;;24.29;39.54;101246.47;5055902;28;20465;-81
2021/06/23 08:47:41;;;;;;;11.65;2.90;;;;;;;24.18;39.58;101246.75;5057215;28;20071;-81
2021/06/23 08:50:16;;;;;;;15.75;3.10;;;;;;;24.13;40.16;101247.25;5062730;28;20049;-82
2021/06/23 08:52:43;;;;;;;11.13;3.20;;;;;;;24.05;40.33;101249.09;5040256;28;20076;-86
2021/06/23 08:55:12;;;;;;;9.07;2.60;;;;;;;23.84;41.13;101244.13;5064059;28;20066;-85
2021/06/23 08:57:40;;;;;;;21.08;4.18;;;;;;;23.28;42.08;101245.47;5049847;28;20039;-85
2021/06/23 09:00:08;;;;;;;13.35;3.22;;;;;;;22.76;43.27;101248.91;5047793;28;20466;-83
2021/06/23 09:02:35;;;;;;;15.40;3.25;;;;;;;23.30;42.46;101248.84;5027390;28;20346;-85
2021/06/23 09:05:07;;;;;;;16.35;3.45;;;;;;;23.60;42.25;101253.75;5069726;28;20314;-84
2021/06/23 09:07:37;;;;;;;10.48;3.60;;;;;;;23.36;43.87;101256.25;5050685;28;20056;-84
2021/06/23 09:10:07;;;;;;;9.45;3.65;;;;;;;23.89;42.34;101256.06;5085096;28;20526;-85
2021/06/23 09:12:35;;;;;;;9.60;3.28;;;;;;;23.82;42.58;101254.19;5036880;28;20145;-85
2021/06/23 09:15:02;;;;;;;11.70;3.05;;;;;;;23.83;42.73;101253.22;5063914;28;20052;-84
2021/06/23 09:17:30;;;;;;;12.48;3.33;;;;;;;23.89;42.51;101255.25;5054405;28;20112;-86
2021/06/23 09:19:59;;;;;;;14.43;3.15;;;;;;;23.47;43.55;101258.69;5087033;28;20044;-85
2021/06/23 09:22:35;;;;;;;15.82;3.60;;;;;;;23.29;43.97;101252.53;5060309;28;20588;-85
2021/06/23 09:25:06;;;;;;;11.73;3.25;;;;;;;23.56;42.93;101254.22;5055939;28;20068;-85
2021/06/23 09:27:33;;;;;;;15.20;3.53;;;;;;;23.41;43.97;101262.00;5047632;28;20054;-82
2021/06/23 09:30:28;;;;;;;18.10;3.40;;;;;;;23.15;44.45;101268.22;5040813;28;20665;-79
2021/06/23 09:33:10;;;;;;;18.40;3.60;;;;;;;22.86;45.50;101256.88;5078652;28;20056;-79
2021/06/23 09:35:45;;;;;;;10.75;3.55;;;;;;;22.51;45.80;101261.25;5074088;28;20131;-84
2021/06/23 09:38:48;;;;;;;15.35;3.75;;;;;;;23.22;43.55;101274.63;5069077;28;20119;-84
2021/06/23 09:41:27;;;;;;;9.98;3.55;;;;;;;23.95;42.18;101285.00;5046734;28;20054;-82
2021/06/23 09:44:06;;;;;;;8.40;2.95;;;;;;;24.95;39.17;101285.09;5081808;28;20036;-82
2021/06/23 09:46:38;;;;;;;9.35;2.55;;;;;;;25.22;38.49;101281.25;5038024;28;20051;-81
2021/06/23 09:49:11;;;;;;;9.00;3.30;;;;;;;24.90;38.45;101280.22;5057515;28;20057;-83
2021/06/23 09:52:00;;;;;;;10.63;2.65;;;;;;;25.03;38.39;101266.22;5071133;28;20068;-81
2021/06/23 09:54:34;;;;;;;13.52;3.22;;;;;;;25.44;37.80;101272.47;5059373;28;20489;-84
2021/06/23 09:57:11;;;;;;;12.15;3.20;;;;;;;25.06;38.43;101263.22;5015340;28;20048;-81
2021/06/23 09:59:44;;;;;;;12.55;3.50;;;;;;;25.27;38.36;101257.34;5061950;28;20056;-81
2021/06/23 10:02:28;;;;;;;11.40;3.42;;;;;;;24.65;38.66;101265.91;5057916;28;20049;-81
2021/06/23 10:04:59;;;;;;;12.82;3.22;;;;;;;24.96;38.61;101265.25;5047685;28;20059;-78
2021/06/23 10:07:43;;;;;;;8.02;3.13;;;;;;;24.40;40.38;101278.44;5065062;28;20576;-82
2021/06/23 10:10:15;;;;;;;13.23;3.80;;;;;;;24.55;40.09;101275.16;5051950;28;20586;-81
2021/06/23 10:12:45;;;;;;;10.10;2.90;;;;;;;23.97;40.71;101272.25;5061129;28;20054;-82
2021/06/23 10:15:13;;;;;;;9.35;3.65;;;;;;;23.42;42.49;101274.47;5032677;28;20040;-81
2021/06/23 10:17:42;;;;;;;11.02;3.47;;;;;;;23.75;41.63;101275.50;5066551;28;20123;-79
2021/06/23 10:20:09;;;;;;;13.95;4.13;;;;;;;24.62;39.70;101268.91;5076709;28;20721;-80
2021/06/23 10:22:38;;;;;;;10.60;3.78;;;;;;;25.06;39.49;101265.91;5034309;28;20717;-80
2021/06/23 10:25:07;;;;;;;18.35;3.75;;;;;;;23.63;41.37;101271.38;5058891;28;20052;-80
2021/06/23 10:27:35;;;;;;;14.02;4.25;;;;;;;23.73;41.79;101273.00;5056898;28;20135;-80
2021/06/23 10:30:03;;;;;;;16.10;3.70;;;;;;;22.13;44.70;101281.13;5051455;28;20048;-83
2021/06/23 10:32:31;;;;;;;12.57;5.07;;;;;;;23.36;42.63;101280.44;5043468;28;20586;-81
2021/06/23 10:34:58;;;;;;;10.02;3.60;;;;;;;23.55;42.00;101280.25;5068822;28;20060;-79
2021/06/23 10:37:28;;;;;;;8.95;2.92;;;;;;;23.62;42.47;101283.97;5067737;28;20288;-80
2021/06/23 10:39:55;;;;;;;17.67;3.75;;;;;;;23.90;41.70;101278.44;5052431;28;20040;-81
2021/06/23 10:42:24;;;;;;;11.40;4.13;;;;;;;24.16;41.62;101281.06;5069575;28;20046;-79
2021/06/23 10:44:54;;;;;;;12.30;3.85;;;;;;;24.19;41.14;101283.44;5044012;28;20532;-81
2021/06/23 10:47:34;;;;;;;12.90;4.18;;;;;;;24.07;41.47;101288.25;5042100;28;20043;-80
2021/06/23 10:50:02;;;;;;;6.95;3.53;;;;;;;24.08;41.33;101292.63;5070210;28;21673;-79
2021/06/23 10:52:30;;;;;;;14.20;3.67;;;;;;;23.40;42.52;101289.88;5059821;28;20148;-79
2021/06/23 10:54:59;;;;;;;10.82;3.85;;;;;;;23.25;43.10;101305.72;5070929;28;20108;-80
2021/06/23 10:57:33;;;;;;;14.32;4.43;;;;;;;23.21;43.20;101310.56;5063241;28;20476;-82
2021/06/23 11:00:10;;;;;;;10.70;3.28;;;;;;;23.20;43.55;101316.94;5076188;28;20076;-80
2021/06/23 11:02:41;;;;;;;7.95;3.47;;;;;;;22.93;44.27;101320.56;5076981;28;20115;-80
2021/06/23 11:05:25;;;;;;;11.27;3.92;;;;;;;22.92;44.48;101323.41;5053922;28;20097;-83
2021/06/23 11:07:55;;;;;;;10.85;3.58;;;;;;;22.58;44.57;101323.22;5036605;28;20055;-80
2021/06/23 11:10:34;;;;;;;13.93;3.72;;;;;;;22.45;45.38;101323.56;5049185;28;20501;-82
2021/06/23 11:13:03;;;;;;;11.13;3.90;;;;;;;22.53;45.04;101331.72;5076349;28;20055;-82
2021/06/23 11:15:31;;;;;;;14.27;4.03;;;;;;;22.48;46.02;101334.00;5048103;28;20054;-82
2021/06/23 11:18:18;;;;;;;19.75;4.55;;;;;;;21.88;47.59;101338.91;5071971;28;20131;-81
2021/06/23 11:20:50;;;;;;;11.38;3.78;;;;;;;21.56;48.36;101331.25;5061209;28;20059;-81
2021/06/23 11:23:42;;;;;;;15.48;4.75;;;;;;;21.36;49.03;101323.25;5027921;28;20049;-82
2021/06/23 11:26:18;;;;;;;14.80;4.60;;;;;;;21.23;50.29;101318.16;5087773;28;20044;-80
2021/06/23 11:28:47;;;;;;;11.10;4.43;;;;;;;21.18;50.77;101317.75;5079464;28;20433;-81
2021/06/23 11:31:14;;;;;;;13.88;4.10;;;;;;;21.39;50.37;101317.63;5086848;28;20044;-78
2021/06/23 11:33:44;;;;;;;11.50;3.60;;;;;;;21.47;50.29;101324.91;5075150;28;20469;-83
2021/06/23 11:36:14;;;;;;;16.08;3.88;;;;;;;21.49;49.55;101325.63;5062299;28;20032;-81
2021/06/23 11:38:42;;;;;;;10.27;3.85;;;;;;;21.52;49.97;101319.13;5038345;28;20052;-82
2021/06/23 11:41:09;;;;;;;17.52;3.60;;;;;;;21.55;51.25;101322.38;5045215;28;20167;-81
2021/06/23 11:43:37;;;;;;;21.65;3.58;;;;;;;21.69;52.31;101319.22;5046320;28;20135;-81
2021/06/23 11:46:05;;;;;;;12.77;3.30;;;;;;;21.77;53.83;101320.34;5063031;28;20056;-83